Time;durP1;ratioP1;P1;durP2;ratioP2;P2;SDS_P1;SDS_P2;PMS_P1;PMS_P2;Temp;Humidity;BMP_temperature;BMP_pressure;BME280_temperature;BME280_humidity;BME280_pressure;Samples;Min_cycle;Max_cycle;Signal;HPM_P1;HPM_P2
2024/04/14 00:02:00;;;;;;;8.13;3.10;;;14.60;99.90;;;;;;5416165;26;20085;-52
2024/04/14 00:04:25;;;;;;;7.88;2.38;;;14.60;99.90;;;;;;5420429;26;20007;-56
2024/04/14 00:06:51;;;;;;;4.55;1.88;;;14.50;99.90;;;;;;5379615;26;20591;-52
2024/04/14 00:09:17;;;;;;;3.10;1.88;;;14.40;99.90;;;;;;5412959;26;19995;-52
2024/04/14 00:11:42;;;;;;;3.13;2.40;;;14.40;99.90;;;;;;5409117;26;19999;-56
2024/04/14 00:14:08;;;;;;;7.75;2.63;;;14.30;99.90;;;;;;5409338;26;20014;-52
2024/04/14 00:16:34;;;;;;;7.65;2.20;;;14.30;99.90;;;;;;5411306;26;20072;-53
2024/04/14 00:18:59;;;;;;;10.25;3.13;;;14.30;99.90;;;;;;5418614;26;20064;-56
2024/04/14 00:21:25;;;;;;;7.85;2.40;;;14.30;99.90;;;;;;5402261;26;20031;-52
2024/04/14 00:23:51;;;;;;;6.78;2.15;;;14.30;99.90;;;;;;5373512;26;19992;-56
2024/04/14 00:26:16;;;;;;;7.65;2.78;;;14.20;99.90;;;;;;5406593;26;20101;-52
2024/04/14 00:28:44;;;;;;;5.80;1.90;;;14.20;99.90;;;;;;5411024;26;20069;-56
2024/04/14 00:31:09;;;;;;;4.30;2.25;;;14.20;99.90;;;;;;5414594;26;20076;-55
2024/04/14 00:33:35;;;;;;;5.47;2.20;;;14.20;99.90;;;;;;5415281;26;20003;-55
2024/04/14 00:36:04;;;;;;;8.80;2.70;;;14.10;99.90;;;;;;5387037;26;19999;-51
2024/04/14 00:38:30;;;;;;;8.02;2.45;;;14.10;99.90;;;;;;5394959;26;20014;-52
2024/04/14 00:40:55;;;;;;;4.18;1.95;;;14.10;99.90;;;;;;5365907;26;20662;-53
2024/04/14 00:43:21;;;;;;;5.57;2.50;;;14.10;99.90;;;;;;5366772;26;20047;-50
2024/04/14 00:45:47;;;;;;;5.18;2.13;;;14.10;99.90;;;;;;5398882;26;20011;-54
2024/04/14 00:48:13;;;;;;;5.82;2.53;;;14.10;99.90;;;;;;5369880;26;20082;-50
2024/04/14 00:50:40;;;;;;;6.78;3.40;;;14.00;99.90;;;;;;5395695;26;19996;-47
2024/04/14 00:53:07;;;;;;;8.50;2.60;;;14.00;99.90;;;;;;5399568;26;20011;-56
2024/04/14 00:55:34;;;;;;;7.53;2.70;;;14.00;99.90;;;;;;5393604;26;20076;-56
2024/04/14 00:58:00;;;;;;;7.70;2.65;;;13.90;99.90;;;;;;5367490;26;19997;-52
2024/04/14 01:00:26;;;;;;;9.48;2.97;;;13.90;99.90;;;;;;5395182;26;20000;-49
2024/04/14 01:02:55;;;;;;;7.20;3.15;;;13.90;99.90;;;;;;5397382;26;20015;-53
2024/04/14 01:05:22;;;;;;;11.07;2.53;;;13.90;99.90;;;;;;5401835;26;20010;-51
2024/04/14 01:07:48;;;;;;;11.10;3.60;;;13.80;99.90;;;;;;5368109;26;20010;-54
2024/04/14 01:10:15;;;;;;;7.18;3.00;;;13.80;99.90;;;;;;5397110;26;20038;-50
2024/04/14 01:12:40;;;;;;;8.80;3.63;;;13.70;99.90;;;;;;5405168;26;20073;-53
2024/04/14 01:15:06;;;;;;;6.65;2.78;;;13.60;99.90;;;;;;5402947;26;19999;-51
2024/04/14 01:17:31;;;;;;;9.80;3.80;;;13.50;99.90;;;;;;5403334;26;20019;-49
2024/04/14 01:19:57;;;;;;;10.23;3.97;;;13.40;99.90;;;;;;5398821;26;20022;-50
2024/04/14 01:22:22;;;;;;;8.23;3.35;;;13.30;99.90;;;;;;5404211;26;19999;-53
2024/04/14 01:24:50;;;;;;;8.93;3.45;;;13.30;99.90;;;;;;5408172;26;20704;-53
2024/04/14 01:27:15;;;;;;;9.82;3.30;;;13.20;99.90;;;;;;5403081;26;20068;-51
2024/04/14 01:29:41;;;;;;;8.90;3.75;;;13.20;99.90;;;;;;5407966;26;20081;-51
2024/04/14 01:32:07;;;;;;;6.32;3.38;;;13.10;99.90;;;;;;5406335;26;20065;-51
2024/04/14 01:34:32;;;;;;;6.03;3.83;;;13.10;99.90;;;;;;5410621;26;20007;-56
2024/04/14 01:36:58;;;;;;;9.35;3.47;;;13.00;99.90;;;;;;5406958;26;20452;-55
2024/04/14 01:39:24;;;;;;;8.13;3.70;;;13.00;99.90;;;;;;5401516;26;20018;-52
2024/04/14 01:41:49;;;;;;;6.38;3.63;;;13.00;99.90;;;;;;5399796;26;20022;-52
2024/04/14 01:44:15;;;;;;;7.03;3.85;;;13.00;99.90;;;;;;5408648;26;20073;-56
2024/04/14 01:46:40;;;;;;;9.73;3.85;;;12.90;99.90;;;;;;5406340;26;20064;-51
2024/04/14 01:49:06;;;;;;;9.52;3.45;;;12.90;99.90;;;;;;5378729;26;20010;-52
2024/04/14 01:51:32;;;;;;;10.35;4.00;;;13.00;99.90;;;;;;5396473;26;20010;-51
2024/04/14 01:53:57;;;;;;;9.80;4.05;;;12.90;99.90;;;;;;5412848;26;20007;-51
2024/04/14 01:56:23;;;;;;;8.38;3.75;;;12.90;99.90;;;;;;5416982;26;19995;-54
2024/04/14 01:58:48;;;;;;;7.97;3.47;;;12.80;99.90;;;;;;5410188;26;20024;-52
2024/04/14 02:01:15;;;;;;;8.55;3.17;;;12.80;99.90;;;;;;5402539;26;20078;-53
2024/04/14 02:03:41;;;;;;;7.10;3.47;;;12.80;99.90;;;;;;5409745;26;20007;-51
2024/04/14 02:06:07;;;;;;;8.98;3.30;;;12.70;99.90;;;;;;5417024;26;20336;-55
2024/04/14 02:08:33;;;;;;;8.32;3.10;;;12.60;99.90;;;;;;5414417;26;20726;-55
2024/04/14 02:11:01;;;;;;;10.23;3.15;;;12.60;99.90;;;;;;5405692;26;20430;-51
2024/04/14 02:13:27;;;;;;;9.00;2.97;;;12.50;99.90;;;;;;5411028;26;20003;-57
2024/04/14 02:15:53;;;;;;;10.32;3.42;;;12.50;99.90;;;;;;5414654;26;20008;-54
2024/04/14 02:18:18;;;;;;;6.97;2.80;;;12.50;99.90;;;;;;5414134;26;19995;-52
2024/04/14 02:20:44;;;;;;;8.45;2.90;;;12.40;99.90;;;;;;5409031;26;20906;-48
2024/04/14 02:23:10;;;;;;;9.30;3.85;;;12.40;99.90;;;;;;5388823;26;20002;-53
2024/04/14 02:25:35;;;;;;;9.00;2.75;;;12.30;99.90;;;;;;5379508;26;20421;-53
2024/04/14 02:28:01;;;;;;;6.88;3.22;;;12.20;99.90;;;;;;5384700;26;20622;-54
2024/04/14 02:30:27;;;;;;;7.97;2.58;;;12.10;99.90;;;;;;5381542;26;20714;-56
2024/04/14 02:32:52;;;;;;;8.20;3.33;;;12.00;99.90;;;;;;5413699;26;20017;-54
2024/04/14 02:35:18;;;;;;;11.40;3.30;;;12.00;99.90;;;;;;5411522;26;20092;-51
2024/04/14 02:37:43;;;;;;;13.27;3.25;;;11.90;99.90;;;;;;5419440;26;20078;-52
2024/04/14 02:40:12;;;;;;;9.27;3.17;;;11.80;99.90;;;;;;5384941;26;23240;-50
2024/04/14 02:42:37;;;;;;;9.60;2.88;;;11.70;99.90;;;;;;5420372;26;20014;-57
2024/04/14 02:45:03;;;;;;;6.68;2.67;;;11.70;99.90;;;;;;5389353;26;20801;-52
2024/04/14 02:47:29;;;;;;;12.35;3.60;;;11.60;99.90;;;;;;5416292;26;20015;-49
2024/04/14 02:49:55;;;;;;;6.75;2.72;;;11.60;99.90;;;;;;5380719;26;20397;-52
2024/04/14 02:52:20;;;;;;;8.88;2.60;;;11.50;99.90;;;;;;5409648;26;20019;-52
2024/04/14 02:54:46;;;;;;;8.02;2.13;;;11.50;99.90;;;;;;5411572;26;20096;-55
2024/04/14 02:57:12;;;;;;;5.30;1.77;;;11.40;99.90;;;;;;5410220;26;20011;-56
2024/04/14 02:59:38;;;;;;;9.20;2.40;;;11.40;99.90;;;;;;5388028;26;19996;-52
2024/04/14 03:02:05;;;;;;;8.75;3.67;;;11.30;99.90;;;;;;5358113;26;20003;-52
2024/04/14 03:04:30;;;;;;;9.55;2.28;;;11.30;99.90;;;;;;5409814;26;19999;-53
2024/04/14 03:06:56;;;;;;;11.80;2.80;;;11.20;99.90;;;;;;5407875;26;20031;-55
2024/04/14 03:09:21;;;;;;;7.70;3.03;;;11.20;99.90;;;;;;5411170;26;20238;-50
2024/04/14 03:11:47;;;;;;;12.25;2.55;;;11.10;99.90;;;;;;5408074;26;19992;-54
2024/04/14 03:14:13;;;;;;;3.53;2.15;;;11.10;99.90;;;;;;5410191;26;20089;-52
2024/04/14 03:16:39;;;;;;;11.13;2.63;;;11.00;99.90;;;;;;5415729;26;19995;-52
2024/04/14 03:19:04;;;;;;;8.48;2.28;;;11.00;99.90;;;;;;5414152;26;20018;-55
2024/04/14 03:21:30;;;;;;;4.72;1.73;;;11.00;99.90;;;;;;5377382;26;20014;-53
2024/04/14 03:23:55;;;;;;;12.70;2.72;;;10.90;99.90;;;;;;5402416;26;20014;-54
2024/04/14 03:26:21;;;;;;;6.10;2.10;;;10.90;99.90;;;;;;5411442;26;19998;-55
2024/04/14 03:28:47;;;;;;;8.13;2.28;;;10.80;99.90;;;;;;5414063;26;20003;-56
2024/04/14 03:31:12;;;;;;;6.78;2.13;;;10.80;99.90;;;;;;5391479;26;20007;-53
2024/04/14 03:33:38;;;;;;;6.45;1.38;;;10.80;99.90;;;;;;5381631;26;19999;-51
2024/04/14 03:36:07;;;;;;;6.03;1.90;;;10.70;99.90;;;;;;5419167;26;20009;-52
2024/04/14 03:38:33;;;;;;;8.95;1.70;;;10.70;99.90;;;;;;5381154;26;20000;-54
2024/04/14 03:40:59;;;;;;;5.18;2.03;;;10.60;99.90;;;;;;5410115;26;19999;-54
2024/04/14 03:43:25;;;;;;;5.40;1.55;;;10.50;99.90;;;;;;5373915;26;20028;-52
2024/04/14 03:45:50;;;;;;;7.03;1.70;;;10.50;99.90;;;;;;5407339;26;20341;-55
2024/04/14 03:48:16;;;;;;;6.80;2.03;;;10.40;99.90;;;;;;5404210;26;21652;-50
2024/04/14 03:50:42;;;;;;;10.45;1.65;;;10.40;99.90;;;;;;5380211;26;20752;-49
2024/04/14 03:53:07;;;;;;;9.23;2.33;;;10.30;99.90;;;;;;5412321;26;20022;-54
2024/04/14 03:55:33;;;;;;;7.07;1.88;;;10.30;99.90;;;;;;5417950;26;20003;-55
2024/04/14 03:57:58;;;;;;;5.90;1.52;;;10.20;99.90;;;;;;5410807;26;20000;-50
2024/04/14 04:00:24;;;;;;;6.63;1.90;;;10.20;99.90;;;;;;5409595;26;20014;-51
2024/04/14 04:02:50;;;;;;;6.97;1.38;;;10.10;99.90;;;;;;5409906;26;20041;-50
2024/04/14 04:05:16;;;;;;;6.32;1.67;;;10.00;99.90;;;;;;5380337;26;20408;-54
2024/04/14 04:07:41;;;;;;;8.52;2.50;;;9.90;99.90;;;;;;5402809;26;20011;-55
2024/04/14 04:10:07;;;;;;;7.80;1.75;;;9.90;99.90;;;;;;5378927;26;20335;-53
2024/04/14 04:12:34;;;;;;;6.10;1.42;;;9.90;99.90;;;;;;5417913;26;20018;-51
2024/04/14 04:14:59;;;;;;;10.18;2.20;;;9.90;99.90;;;;;;5414700;26;20003;-54
2024/04/14 04:17:25;;;;;;;8.43;1.88;;;9.90;99.90;;;;;;5382911;26;20668;-53
2024/04/14 04:19:50;;;;;;;6.97;2.00;;;9.90;99.90;;;;;;5414530;26;19996;-53
2024/04/14 04:22:16;;;;;;;7.80;1.90;;;9.90;99.90;;;;;;5409710;26;20018;-54
2024/04/14 04:24:41;;;;;;;7.50;2.33;;;9.80;99.90;;;;;;5412616;26;20561;-53
2024/04/14 04:27:07;;;;;;;6.82;1.85;;;9.80;99.90;;;;;;5418051;26;20737;-50
2024/04/14 04:29:33;;;;;;;8.75;2.05;;;9.70;99.90;;;;;;5382628;26;20001;-52
2024/04/14 04:31:58;;;;;;;7.97;1.92;;;9.60;99.90;;;;;;5385178;26;19996;-52
2024/04/14 04:34:25;;;;;;;5.90;1.80;;;9.60;99.90;;;;;;5407687;26;20003;-54
2024/04/14 04:36:50;;;;;;;6.50;1.92;;;9.60;99.90;;;;;;5414952;26;20035;-53
2024/04/14 04:39:17;;;;;;;7.38;1.75;;;9.50;99.90;;;;;;5377884;26;20018;-54
2024/04/14 04:41:42;;;;;;;7.28;2.13;;;9.50;99.90;;;;;;5411152;26;20691;-58
2024/04/14 04:44:10;;;;;;;5.47;1.70;;;9.50;99.90;;;;;;5407208;26;20019;-49
2024/04/14 04:46:36;;;;;;;5.72;1.33;;;9.40;99.90;;;;;;5399599;26;19996;-53
2024/04/14 04:49:01;;;;;;;7.53;1.27;;;9.40;99.90;;;;;;5408682;26;20562;-55
2024/04/14 04:51:28;;;;;;;8.13;1.42;;;9.40;99.90;;;;;;5406888;26;20706;-53
2024/04/14 04:53:53;;;;;;;5.72;1.25;;;9.30;99.90;;;;;;5404658;26;20050;-51
2024/04/14 04:56:19;;;;;;;5.80;1.85;;;9.30;99.90;;;;;;5404353;26;20614;-50
2024/04/14 04:58:44;;;;;;;7.50;1.48;;;9.20;99.90;;;;;;5415111;26;20021;-52
2024/04/14 05:01:11;;;;;;;4.97;0.90;;;9.30;99.90;;;;;;5380516;26;19995;-56
2024/04/14 05:03:36;;;;;;;5.30;1.42;;;9.20;99.90;;;;;;5410512;26;19997;-56
2024/04/14 05:06:03;;;;;;;7.95;2.13;;;9.20;99.90;;;;;;5377874;26;20607;-53
2024/04/14 05:08:29;;;;;;;5.18;1.52;;;9.20;99.90;;;;;;5409839;26;20023;-55
2024/04/14 05:10:57;;;;;;;8.27;2.13;;;9.10;99.90;;;;;;5411180;26;20011;-51
2024/04/14 05:13:26;;;;;;;7.53;2.30;;;9.20;99.90;;;;;;5421873;26;20010;-56
2024/04/14 05:15:53;;;;;;;9.02;1.63;;;9.10;99.90;;;;;;5405435;26;20518;-52
2024/04/14 05:18:19;;;;;;;8.32;1.55;;;9.10;99.90;;;;;;5417445;26;19998;-53
2024/04/14 05:20:44;;;;;;;7.38;1.27;;;9.10;99.90;;;;;;5406299;26;20010;-58
2024/04/14 05:23:10;;;;;;;13.10;1.95;;;9.10;99.90;;;;;;5412986;26;20564;-53
2024/04/14 05:25:36;;;;;;;5.15;2.10;;;9.10;99.90;;;;;;5415592;26;20622;-52
2024/04/14 05:28:02;;;;;;;6.15;1.73;;;9.10;99.90;;;;;;5417928;26;20011;-50
2024/04/14 05:30:28;;;;;;;8.38;2.13;;;9.10;99.90;;;;;;5416042;26;20335;-55
2024/04/14 05:32:54;;;;;;;7.22;1.70;;;9.10;99.90;;;;;;5406106;26;20038;-52
2024/04/14 05:35:20;;;;;;;9.23;1.70;;;9.10;99.90;;;;;;5416337;26;20006;-52
2024/04/14 05:37:46;;;;;;;6.63;1.70;;;9.00;99.90;;;;;;5410273;26;20008;-50
2024/04/14 05:40:12;;;;;;;5.53;1.40;;;9.10;99.90;;;;;;5418353;26;20528;-54
2024/04/14 05:42:38;;;;;;;5.43;2.35;;;9.00;99.90;;;;;;5411552;26;20169;-52
2024/04/14 05:45:07;;;;;;;8.40;3.83;;;9.10;99.90;;;;;;5404280;26;20000;-56
2024/04/14 05:47:33;;;;;;;6.97;2.05;;;9.10;99.90;;;;;;5405440;26;20111;-54
2024/04/14 05:49:58;;;;;;;6.28;1.70;;;9.10;99.90;;;;;;5420491;26;20014;-48
2024/04/14 05:52:24;;;;;;;9.07;2.35;;;9.20;99.90;;;;;;5407817;26;19999;-54
2024/04/14 05:54:49;;;;;;;4.70;1.30;;;9.20;99.90;;;;;;5409871;26;20015;-52
2024/04/14 05:57:15;;;;;;;5.03;1.35;;;9.20;99.90;;;;;;5404331;26;20014;-51
2024/04/14 05:59:41;;;;;;;6.93;1.90;;;9.20;99.90;;;;;;5410773;26;20447;-54
2024/04/14 06:02:06;;;;;;;6.10;1.80;;;9.20;99.90;;;;;;5387543;26;20650;-54
2024/04/14 06:04:32;;;;;;;8.68;1.80;;;9.30;99.90;;;;;;5403574;26;20004;-56
2024/04/14 06:06:57;;;;;;;7.88;1.85;;;9.30;99.90;;;;;;5408640;26;19996;-56
2024/04/14 06:09:23;;;;;;;5.18;1.52;;;9.40;99.90;;;;;;5414427;26;19995;-51
2024/04/14 06:11:49;;;;;;;8.88;1.25;;;9.40;99.90;;;;;;5407164;26;20023;-54
2024/04/14 06:14:15;;;;;;;8.88;1.77;;;9.40;99.90;;;;;;5419997;26;19995;-51
2024/04/14 06:16:41;;;;;;;7.13;1.85;;;9.40;99.90;;;;;;5413583;26;20090;-54
2024/04/14 06:19:06;;;;;;;9.20;1.98;;;9.40;99.90;;;;;;5411844;26;19992;-53
2024/04/14 06:21:32;;;;;;;8.38;1.92;;;9.50;99.90;;;;;;5407305;26;20479;-50
2024/04/14 06:23:57;;;;;;;8.25;1.73;;;9.50;99.90;;;;;;5407785;26;20411;-56
2024/04/14 06:26:23;;;;;;;7.07;1.52;;;9.60;99.90;;;;;;5419180;26;19999;-51
2024/04/14 06:28:48;;;;;;;5.60;1.58;;;9.60;99.90;;;;;;5406818;26;20392;-53
2024/04/14 06:31:14;;;;;;;14.18;3.53;;;9.70;99.90;;;;;;5402000;26;19995;-54
2024/04/14 06:33:39;;;;;;;11.38;2.45;;;9.70;99.90;;;;;;5404857;26;19996;-57
2024/04/14 06:36:06;;;;;;;5.25;1.25;;;9.70;99.90;;;;;;5390810;26;20002;-53
2024/04/14 06:38:32;;;;;;;12.10;2.28;;;9.80;99.90;;;;;;5415867;26;20074;-52
2024/04/14 06:40:58;;;;;;;7.35;2.28;;;9.80;99.90;;;;;;5413733;26;20011;-54
2024/04/14 06:43:23;;;;;;;7.93;2.30;;;9.80;99.90;;;;;;5406999;26;20015;-52
2024/04/14 06:45:53;;;;;;;8.20;1.92;;;9.80;99.90;;;;;;5412001;26;19995;-51
2024/04/14 06:48:20;;;;;;;5.63;1.60;;;9.90;99.90;;;;;;5420215;26;19995;-52
2024/04/14 06:50:45;;;;;;;10.65;2.13;;;9.90;99.90;;;;;;5388516;26;20029;-51
2024/04/14 06:53:12;;;;;;;6.65;2.15;;;9.90;99.90;;;;;;5409624;26;20584;-53
2024/04/14 06:55:37;;;;;;;7.80;1.65;;;9.80;99.90;;;;;;5410348;26;20010;-52
2024/04/14 06:58:03;;;;;;;12.77;2.22;;;9.90;99.90;;;;;;5405502;26;20011;-53
2024/04/14 07:00:28;;;;;;;5.78;2.03;;;9.80;99.90;;;;;;5406265;26;19995;-55
2024/04/14 07:02:54;;;;;;;11.73;1.75;;;9.80;99.90;;;;;;5412250;26;20526;-48
2024/04/14 07:05:19;;;;;;;12.57;2.20;;;9.90;99.90;;;;;;5384758;26;20070;-51
2024/04/14 07:07:45;;;;;;;4.72;1.25;;;10.00;99.90;;;;;;5407020;26;20007;-48
2024/04/14 07:10:10;;;;;;;10.18;1.77;;;10.10;99.90;;;;;;5413121;26;20011;-52
2024/04/14 07:12:36;;;;;;;7.10;2.17;;;10.30;99.90;;;;;;5409859;26;20018;-51
2024/04/14 07:15:02;;;;;;;13.20;2.13;;;10.50;99.90;;;;;;5407906;26;20007;-52
2024/04/14 07:17:28;;;;;;;8.55;2.13;;;10.60;99.90;;;;;;5410536;26;20003;-48
2024/04/14 07:19:54;;;;;;;13.07;2.60;;;10.60;99.90;;;;;;5414311;26;20074;-52
2024/04/14 07:22:20;;;;;;;9.20;2.15;;;10.70;99.90;;;;;;5414330;26;20003;-47
2024/04/14 07:24:45;;;;;;;7.65;2.08;;;10.60;99.90;;;;;;5405654;26;20007;-51
2024/04/14 07:27:11;;;;;;;7.28;2.40;;;10.60;99.90;;;;;;5414653;26;20019;-53
2024/04/14 07:29:36;;;;;;;8.50;2.40;;;10.70;99.90;;;;;;5415802;26;20010;-52
2024/04/14 07:32:02;;;;;;;10.48;1.45;;;10.80;99.90;;;;;;5416890;26;20049;-49
2024/04/14 07:34:28;;;;;;;8.10;1.25;;;10.90;99.90;;;;;;5407943;26;20469;-49
2024/04/14 07:36:53;;;;;;;8.40;2.40;;;11.10;99.90;;;;;;5415714;26;20004;-51
2024/04/14 07:39:19;;;;;;;8.52;1.70;;;11.30;99.90;;;;;;5377726;26;20036;-50
2024/04/14 07:41:44;;;;;;;8.82;1.52;;;11.30;99.90;;;;;;5407937;26;19994;-48
2024/04/14 07:44:10;;;;;;;9.10;1.55;;;11.30;99.90;;;;;;5412257;26;20005;-52
2024/04/14 07:46:35;;;;;;;13.30;3.05;;;11.40;99.90;;;;;;5401272;26;20012;-52
2024/04/14 07:49:01;;;;;;;9.07;2.17;;;11.40;99.90;;;;;;5410027;26;19999;-55
2024/04/14 07:51:26;;;;;;;10.32;1.90;;;11.60;99.90;;;;;;5400706;26;20003;-49
2024/04/14 07:53:52;;;;;;;5.25;1.70;;;11.70;99.90;;;;;;5407443;26;20076;-48
2024/04/14 07:56:18;;;;;;;7.60;1.90;;;11.80;99.90;;;;;;5405705;26;20009;-51
2024/04/14 07:58:43;;;;;;;6.57;2.08;;;11.90;99.90;;;;;;5400684;26;19996;-52
2024/04/14 08:01:10;;;;;;;6.43;1.77;;;12.00;99.90;;;;;;5403225;26;20003;-50
2024/04/14 08:03:36;;;;;;;11.05;2.58;;;12.30;99.90;;;;;;5405904;26;19992;-53
2024/04/14 08:06:01;;;;;;;8.93;2.20;;;12.30;99.90;;;;;;5404126;26;20018;-47
2024/04/14 08:08:27;;;;;;;6.70;1.58;;;12.40;99.90;;;;;;5378753;26;20149;-48
2024/04/14 08:10:52;;;;;;;6.85;2.00;;;12.20;99.90;;;;;;5418502;26;19998;-54
2024/04/14 08:13:18;;;;;;;4.60;1.50;;;12.00;99.90;;;;;;5412042;26;20022;-51
2024/04/14 08:15:43;;;;;;;6.00;1.65;;;12.10;99.90;;;;;;5377226;26;20015;-53
2024/04/14 08:18:09;;;;;;;6.93;1.58;;;12.30;99.90;;;;;;5390986;26;20410;-50
2024/04/14 08:20:35;;;;;;;5.72;1.52;;;12.40;99.90;;;;;;5405254;26;19997;-52
2024/04/14 08:23:01;;;;;;;7.75;2.05;;;12.60;99.90;;;;;;5419365;26;20005;-51
2024/04/14 08:25:26;;;;;;;4.32;1.27;;;12.70;99.90;;;;;;5403748;26;20449;-52
2024/04/14 08:27:52;;;;;;;4.82;1.38;;;12.90;99.90;;;;;;5415511;26;20131;-49
2024/04/14 08:30:17;;;;;;;7.10;1.50;;;13.00;99.90;;;;;;5400127;26;20000;-50
2024/04/14 08:32:44;;;;;;;5.70;1.63;;;13.10;99.90;;;;;;5411427;26;19991;-52
2024/04/14 08:35:10;;;;;;;4.18;1.38;;;13.30;99.90;;;;;;5406536;26;20603;-52
2024/04/14 08:37:35;;;;;;;1.83;0.80;;;13.30;99.90;;;;;;5406052;26;20026;-50
2024/04/14 08:40:01;;;;;;;4.53;1.70;;;13.40;99.90;;;;;;5378603;26;20480;-52
2024/04/14 08:42:29;;;;;;;5.82;1.60;;;13.50;99.90;;;;;;5412299;26;20014;-49
2024/04/14 08:44:58;;;;;;;6.55;1.30;;;13.50;99.90;;;;;;5409278;26;19999;-54
2024/04/14 08:47:24;;;;;;;6.65;1.52;;;13.50;99.90;;;;;;5408909;26;20369;-54
2024/04/14 08:49:50;;;;;;;6.15;1.55;;;13.40;99.90;;;;;;5407230;26;20102;-55
2024/04/14 08:52:17;;;;;;;5.60;1.40;;;13.20;99.90;;;;;;5419069;26;20007;-58
2024/04/14 08:54:43;;;;;;;6.18;1.70;;;13.20;99.90;;;;;;5398767;26;20018;-52
2024/04/14 08:57:10;;;;;;;8.77;2.22;;;13.40;99.90;;;;;;5411963;26;20015;-53
2024/04/14 08:59:41;;;;;;;8.02;1.27;;;13.30;99.90;;;;;;5374381;26;20100;-47
2024/04/14 09:02:09;;;;;;;7.85;2.35;;;13.50;99.90;;;;;;5418794;26;19999;-54
2024/04/14 09:04:35;;;;;;;4.82;1.30;;;13.50;99.90;;;;;;5371640;26;20030;-52
2024/04/14 09:07:01;;;;;;;7.35;1.35;;;13.40;99.90;;;;;;5411773;26;20007;-56
2024/04/14 09:09:26;;;;;;;7.40;1.40;;;13.40;99.90;;;;;;5412947;26;20000;-53
2024/04/14 09:11:53;;;;;;;6.90;1.73;;;13.50;99.90;;;;;;5412711;26;20530;-51
2024/04/14 09:14:19;;;;;;;2.83;1.45;;;13.70;99.90;;;;;;5418669;26;20331;-58
2024/04/14 09:16:45;;;;;;;5.53;1.25;;;13.60;99.90;;;;;;5414238;26;20007;-54
2024/04/14 09:19:10;;;;;;;5.80;1.67;;;13.70;99.90;;;;;;5382145;26;19992;-55
2024/04/14 09:21:36;;;;;;;2.85;1.20;;;13.70;99.90;;;;;;5407203;26;20023;-48
2024/04/14 09:24:02;;;;;;;3.97;1.40;;;13.70;99.90;;;;;;5407825;26;20548;-49
2024/04/14 09:26:27;;;;;;;3.75;1.52;;;13.50;99.90;;;;;;5404770;26;20346;-54
2024/04/14 09:29:06;;;;;;;4.10;0.90;;;13.30;99.90;;;;;;5408979;26;20778;-60
2024/04/14 09:31:33;;;;;;;9.80;1.63;;;13.20;99.90;;;;;;5401750;26;20447;-56
2024/04/14 09:33:58;;;;;;;6.68;1.25;;;13.00;99.90;;;;;;5381329;26;20017;-52
2024/04/14 09:36:25;;;;;;;8.98;1.98;;;13.00;99.90;;;;;;5403405;26;20530;-55
2024/04/14 09:38:53;;;;;;;10.35;1.60;;;12.80;99.90;;;;;;5370256;26;20031;-52
2024/04/14 09:41:20;;;;;;;5.95;1.33;;;12.80;99.90;;;;;;5411775;26;19995;-53
2024/04/14 09:43:46;;;;;;;9.40;2.17;;;12.70;99.90;;;;;;5412713;26;20002;-52
2024/04/14 09:46:14;;;;;;;2.75;1.25;;;12.70;99.90;;;;;;5422276;26;19995;-54
2024/04/14 09:48:41;;;;;;;7.13;1.45;;;12.90;99.90;;;;;;5400114;26;20011;-56
2024/04/14 09:51:08;;;;;;;1.77;0.90;;;13.30;99.90;;;;;;5425661;26;20719;-51
2024/04/14 09:53:35;;;;;;;5.97;1.50;;;13.50;99.90;;;;;;5411383;26;20341;-52
2024/04/14 09:56:01;;;;;;;2.83;1.00;;;13.60;99.80;;;;;;5411191;26;19996;-51
2024/04/14 09:58:27;;;;;;;2.70;0.95;;;13.40;99.90;;;;;;5408586;26;20022;-51
2024/04/14 10:00:57;;;;;;;7.40;1.50;;;13.50;98.90;;;;;;5418273;26;20088;-50
2024/04/14 10:03:26;;;;;;;3.92;1.40;;;13.40;99.90;;;;;;5407668;26;20467;-48
2024/04/14 10:05:54;;;;;;;6.30;1.52;;;13.10;99.90;;;;;;5414252;26;20331;-51
2024/04/14 10:08:20;;;;;;;6.40;1.20;;;12.90;99.90;;;;;;5402221;26;20050;-52
2024/04/14 10:10:45;;;;;;;8.95;1.38;;;12.60;99.90;;;;;;5410688;26;20388;-53
2024/04/14 10:13:13;;;;;;;3.90;1.77;;;12.60;99.90;;;;;;5371555;26;20015;-52
2024/04/14 10:15:44;;;;;;;2.38;0.95;;;12.70;99.90;;;;;;5413676;26;20355;-53
2024/04/14 10:18:17;;;;;;;3.53;1.05;;;12.80;99.90;;;;;;5404847;26;20010;-48
2024/04/14 10:20:44;;;;;;;8.43;1.70;;;12.90;99.90;;;;;;5411124;26;20004;-56
2024/04/14 10:23:15;;;;;;;4.60;1.27;;;13.10;99.90;;;;;;5401690;26;20013;-51
2024/04/14 10:25:48;;;;;;;4.03;1.05;;;13.20;99.90;;;;;;5410204;26;20509;-50
2024/04/14 10:28:22;;;;;;;4.50;1.30;;;13.10;99.90;;;;;;5399992;26;20454;-51
2024/04/14 10:31:02;;;;;;;5.72;1.38;;;13.20;99.90;;;;;;5408735;26;20652;-52
2024/04/14 10:33:28;;;;;;;5.78;1.27;;;13.40;99.90;;;;;;5407983;26;19999;-51
2024/04/14 10:36:04;;;;;;;4.68;1.55;;;13.50;99.90;;;;;;5414316;26;19995;-50
2024/04/14 10:38:32;;;;;;;;;;;13.60;99.40;;;;;;5381664;26;19992;-53
2024/04/14 10:40:58;;;;;;;2.85;0.77;;;13.60;98.60;;;;;;5407808;26;19929;-50
2024/04/14 10:43:24;;;;;;;7.38;1.40;;;13.70;99.00;;;;;;5377845;26;20588;-53
2024/04/14 10:45:50;;;;;;;4.00;1.13;;;13.70;99.90;;;;;;5405237;26;20007;-51
2024/04/14 10:48:16;;;;;;;2.97;1.00;;;13.80;99.50;;;;;;5410428;26;20381;-51
2024/04/14 10:50:45;;;;;;;5.75;1.23;;;13.90;98.80;;;;;;5421023;26;19999;-55
2024/04/14 10:53:10;;;;;;;4.65;1.48;;;13.80;99.60;;;;;;5411451;26;20000;-54
2024/04/14 10:55:36;;;;;;;6.68;1.42;;;13.80;99.50;;;;;;5411484;26;20017;-50
2024/04/14 10:58:02;;;;;;;3.95;1.20;;;13.90;98.40;;;;;;5385238;26;20029;-51
2024/04/14 11:00:27;;;;;;;4.35;0.88;;;14.00;98.60;;;;;;5415635;26;20014;-50
2024/04/14 11:02:53;;;;;;;7.47;1.67;;;14.20;99.80;;;;;;5380306;26;20434;-52
2024/04/14 11:05:22;;;;;;;4.25;0.77;;;14.40;99.50;;;;;;5410118;26;19998;-49
2024/04/14 11:07:48;;;;;;;2.65;0.80;;;14.40;98.70;;;;;;5411263;26;20081;-48
2024/04/14 11:10:15;;;;;;;2.78;1.00;;;14.10;97.20;;;;;;5414414;26;19999;-47
2024/04/14 11:12:42;;;;;;;5.57;1.35;;;13.90;97.70;;;;;;5406007;26;20023;-51
2024/04/14 11:15:09;;;;;;;4.07;1.30;;;13.70;98.90;;;;;;5410820;26;20002;-53
2024/04/14 11:17:35;;;;;;;4.50;1.10;;;13.60;99.90;;;;;;5410138;26;20000;-55
2024/04/14 11:20:01;;;;;;;2.35;0.75;;;13.60;99.40;;;;;;5416604;26;20077;-51
2024/04/14 11:22:26;;;;;;;4.25;1.23;;;13.50;99.90;;;;;;5410117;26;19996;-52
2024/04/14 11:24:52;;;;;;;4.75;1.02;;;13.50;99.90;;;;;;5414811;26;20054;-53
2024/04/14 11:27:18;;;;;;;5.95;0.80;;;13.40;99.90;;;;;;5412269;26;20507;-54
2024/04/14 11:29:44;;;;;;;6.38;1.45;;;13.30;99.90;;;;;;5411476;26;20008;-50
2024/04/14 11:32:28;;;;;;;2.85;1.55;;;13.20;99.90;;;;;;5413607;26;20100;-52
2024/04/14 11:34:56;;;;;;;4.95;0.88;;;13.40;99.90;;;;;;5410247;26;20362;-56
2024/04/14 11:37:22;;;;;;;5.95;1.05;;;13.60;99.90;;;;;;5379917;26;19999;-50
2024/04/14 11:39:50;;;;;;;3.97;1.23;;;13.70;99.70;;;;;;5421683;26;20013;-49
2024/04/14 11:42:19;;;;;;;6.93;1.65;;;13.70;98.60;;;;;;5411975;26;20014;-51
2024/04/14 11:44:45;;;;;;;5.25;1.25;;;13.40;98.10;;;;;;5413414;26;20714;-50
2024/04/14 11:47:10;;;;;;;4.93;1.13;;;13.20;99.00;;;;;;5383910;26;20003;-51
2024/04/14 11:49:36;;;;;;;11.18;1.85;;;13.20;99.60;;;;;;5410410;26;20436;-51
2024/04/14 11:52:01;;;;;;;6.97;0.80;;;13.40;99.20;;;;;;5417058;26;20003;-52
2024/04/14 11:54:27;;;;;;;3.88;1.23;;;13.60;98.60;;;;;;5406047;26;20019;-50
2024/04/14 11:56:52;;;;;;;4.93;0.85;;;13.60;97.80;;;;;;5416788;26;20010;-48
2024/04/14 11:59:20;;;;;;;5.70;1.13;;;13.80;98.90;;;;;;5408222;26;20099;-53
2024/04/14 12:01:46;;;;;;;8.43;1.58;;;13.70;97.50;;;;;;5418526;26;20690;-51
2024/04/14 12:04:11;;;;;;;2.50;0.98;;;13.60;96.70;;;;;;5412580;26;20045;-54
2024/04/14 12:06:37;;;;;;;2.17;0.80;;;13.60;97.50;;;;;;5400659;26;20004;-50
2024/04/14 12:09:03;;;;;;;1.90;0.63;;;13.50;97.40;;;;;;5409263;26;20010;-51
2024/04/14 12:11:29;;;;;;;5.07;1.10;;;13.40;99.50;;;;;;5402427;26;20610;-54
2024/04/14 12:13:55;;;;;;;2.90;1.13;;;13.40;97.90;;;;;;5408011;26;20021;-49
2024/04/14 12:16:20;;;;;;;1.80;0.65;;;13.40;97.50;;;;;;5413835;26;20006;-52
2024/04/14 12:18:46;;;;;;;4.80;1.00;;;13.20;98.80;;;;;;5418420;26;20006;-55
2024/04/14 12:21:11;;;;;;;4.13;1.33;;;13.30;98.60;;;;;;5415916;26;20003;-60
2024/04/14 12:23:37;;;;;;;3.08;1.17;;;13.60;99.30;;;;;;5405333;26;20261;-50
2024/04/14 12:26:03;;;;;;;6.75;1.25;;;13.70;99.30;;;;;;5386671;26;20486;-52
2024/04/14 12:28:28;;;;;;;6.68;1.80;;;13.80;99.20;;;;;;5399230;26;20003;-53
2024/04/14 12:30:54;;;;;;;5.13;0.75;;;13.80;98.60;;;;;;5409578;26;20099;-49
2024/04/14 12:33:19;;;;;;;4.03;1.00;;;13.90;99.30;;;;;;5403997;26;20012;-57
2024/04/14 12:35:45;;;;;;;4.95;2.28;;;13.70;97.60;;;;;;5416718;26;20528;-51
2024/04/14 12:38:10;;;;;;;3.33;0.98;;;13.60;99.10;;;;;;5408943;26;20018;-53
2024/04/14 12:40:36;;;;;;;2.95;0.90;;;13.60;99.30;;;;;;5393650;26;20343;-55
2024/04/14 12:43:02;;;;;;;4.05;1.20;;;13.40;99.90;;;;;;5416844;26;20000;-49